Time;durP1;ratioP1;P1;durP2;ratioP2;P2;SDS_P1;SDS_P2;PMS_P1;PMS_P2;Temp;Humidity;BMP_temperature;BMP_pressure;BME280_temperature;BME280_humidity;BME280_pressure;Samples;Min_cycle;Max_cycle;Signal;HPM_P1;HPM_P2
2021/08/15 00:00:35;;;;;;;16.52;3.53;;;;;;;16.16;77.37;100466.34;5067966;28;20020;-77
2021/08/15 00:03:00;;;;;;;14.10;3.90;;;;;;;16.18;77.47;100488.84;5090533;28;20031;-76
2021/08/15 00:05:26;;;;;;;16.08;4.45;;;;;;;16.17;77.57;100471.50;5094148;28;20028;-76
2021/08/15 00:07:53;;;;;;;14.18;3.42;;;;;;;16.19;77.33;100482.19;5090073;28;20032;-76
2021/08/15 00:10:18;;;;;;;17.25;3.78;;;;;;;16.18;77.59;100472.31;5091498;28;20027;-76
2021/08/15 00:12:44;;;;;;;18.90;3.20;;;;;;;16.18;77.31;100486.09;5091060;28;20028;-76
2021/08/15 00:15:10;;;;;;;14.00;3.47;;;;;;;16.16;77.66;100482.84;5087611;28;20393;-76
2021/08/15 00:17:36;;;;;;;19.63;3.95;;;;;;;16.14;77.40;100463.09;5086100;28;20473;-76
2021/08/15 00:20:03;;;;;;;13.35;3.17;;;;;;;16.12;77.61;100476.34;5093810;28;20032;-76
2021/08/15 00:22:28;;;;;;;15.52;3.53;;;;;;;16.09;77.50;100469.53;5086721;28;20023;-76
2021/08/15 00:24:54;;;;;;;14.75;3.45;;;;;;;16.07;77.60;100481.97;5092555;28;20393;-76
2021/08/15 00:27:19;;;;;;;14.75;3.65;;;;;;;16.05;77.83;100471.31;5092514;28;20031;-76
2021/08/15 00:29:44;;;;;;;12.32;2.65;;;;;;;16.05;77.78;100465.81;5092931;28;20032;-76
2021/08/15 00:32:10;;;;;;;14.40;3.60;;;;;;;16.04;77.03;100460.63;5086679;28;20400;-76
2021/08/15 00:34:36;;;;;;;12.20;3.55;;;;;;;16.03;77.11;100462.56;5087047;28;20461;-76
2021/08/15 00:37:01;;;;;;;10.48;2.28;;;;;;;16.02;77.09;100443.66;5091689;28;20921;-77
2021/08/15 00:39:26;;;;;;;23.80;4.25;;;;;;;16.00;76.64;100452.19;5092001;28;20028;-77
2021/08/15 00:41:52;;;;;;;12.40;2.45;;;;;;;15.98;76.69;100455.25;5091658;28;20047;-77
2021/08/15 00:44:19;;;;;;;15.45;3.45;;;;;;;15.97;76.72;100452.84;5074239;28;20477;-77
2021/08/15 00:46:44;;;;;;;12.20;3.80;;;;;;;16.00;76.91;100467.91;5089150;28;20028;-76
2021/08/15 00:49:09;;;;;;;17.10;4.35;;;;;;;16.01;77.03;100444.75;5086638;28;20382;-76
2021/08/15 00:51:35;;;;;;;16.33;2.63;;;;;;;15.98;77.07;100443.44;5086711;28;20473;-76
2021/08/15 00:54:00;;;;;;;18.88;4.03;;;;;;;15.97;77.33;100431.66;5089582;28;20373;-76
2021/08/15 00:56:26;;;;;;;14.02;3.33;;;;;;;15.98;77.23;100455.25;5091857;28;20035;-76
2021/08/15 00:58:51;;;;;;;12.43;3.28;;;;;;;15.96;76.88;100460.28;5087779;28;20368;-76
2021/08/15 01:01:18;;;;;;;12.23;3.75;;;;;;;15.96;76.78;100435.53;5054205;28;20058;-76
2021/08/15 01:03:44;;;;;;;14.90;2.90;;;;;;;15.96;76.88;100457.53;5090664;28;20024;-77
2021/08/15 01:06:09;;;;;;;14.52;3.20;;;;;;;15.98;76.81;100427.75;5083967;28;20035;-76
2021/08/15 01:08:38;;;;;;;16.08;3.25;;;;;;;16.01;76.95;100436.50;5091460;28;20133;-76
2021/08/15 01:11:05;;;;;;;18.35;4.20;;;;;;;16.03;76.90;100428.75;5087958;28;20067;-76
2021/08/15 01:13:34;;;;;;;16.10;3.33;;;;;;;16.03;76.99;100484.56;5080235;28;20038;-76
2021/08/15 01:16:00;;;;;;;11.02;3.35;;;;;;;16.02;76.83;100436.19;5091612;28;20379;-76
2021/08/15 01:18:28;;;;;;;12.82;3.05;;;;;;;16.03;76.93;100429.56;5091543;28;20486;-77
2021/08/15 01:21:10;;;;;;;12.48;3.13;;;;;;;16.01;76.88;100439.25;5084497;28;20180;-76
2021/08/15 01:23:37;;;;;;;13.05;3.63;;;;;;;16.01;77.29;100431.00;5086739;28;20024;-77
2021/08/15 01:26:03;;;;;;;19.48;5.00;;;;;;;16.01;77.48;100431.00;5092594;28;20095;-77
2021/08/15 01:28:29;;;;;;;12.75;3.90;;;;;;;16.00;77.40;100413.72;5090323;28;20016;-77
2021/08/15 01:30:54;;;;;;;15.57;4.05;;;;;;;16.02;77.71;100440.91;5092834;28;20085;-77
2021/08/15 01:33:30;;;;;;;12.57;3.38;;;;;;;16.03;77.90;100423.25;5068880;28;20032;-77
2021/08/15 01:35:56;;;;;;;18.83;4.00;;;;;;;16.02;77.97;100421.66;5080511;28;20028;-76
2021/08/15 01:38:23;;;;;;;13.90;3.20;;;;;;;15.99;77.78;100431.34;5088033;28;20055;-77
2021/08/15 01:40:48;;;;;;;15.73;3.72;;;;;;;15.99;77.77;100406.59;5092481;28;20092;-77
2021/08/15 01:43:14;;;;;;;11.98;3.08;;;;;;;16.02;77.81;100405.16;5090775;28;20106;-77
2021/08/15 01:45:39;;;;;;;6.93;2.05;;;;;;;16.02;77.78;100394.16;5092725;28;20028;-77
2021/08/15 01:48:05;;;;;;;16.02;3.97;;;;;;;16.04;77.59;100414.69;5089108;28;20020;-77
2021/08/15 01:50:30;;;;;;;13.38;3.30;;;;;;;16.07;77.52;100407.72;5091127;28;20415;-76
2021/08/15 01:52:56;;;;;;;16.52;3.60;;;;;;;16.10;77.84;100424.41;5080453;28;20427;-77
2021/08/15 01:55:21;;;;;;;13.13;3.30;;;;;;;16.14;77.86;100416.31;5092063;28;20032;-77
2021/08/15 01:57:46;;;;;;;13.75;2.70;;;;;;;16.16;77.85;100405.81;5091286;28;20035;-77
2021/08/15 02:00:12;;;;;;;19.60;3.95;;;;;;;16.18;77.74;100403.56;5090770;28;20024;-77
2021/08/15 02:02:42;;;;;;;16.13;3.33;;;;;;;16.19;77.49;100392.22;5091003;28;20063;-77
2021/08/15 02:05:08;;;;;;;14.10;3.47;;;;;;;16.20;76.97;100401.28;5095471;28;20035;-77
2021/08/15 02:07:33;;;;;;;8.45;2.55;;;;;;;16.22;76.93;100396.28;5093223;28;20040;-77
2021/08/15 02:09:58;;;;;;;12.07;2.67;;;;;;;16.24;77.07;100394.03;5094970;28;20031;-77
2021/08/15 02:12:24;;;;;;;9.48;2.95;;;;;;;16.26;77.05;100382.69;5094898;28;20028;-76
2021/08/15 02:14:49;;;;;;;16.40;3.67;;;;;;;16.25;76.97;100403.09;5094525;28;20023;-77
2021/08/15 02:17:15;;;;;;;19.45;4.00;;;;;;;16.26;76.96;100399.19;5096483;28;20027;-77
2021/08/15 02:19:40;;;;;;;10.88;2.83;;;;;;;16.26;77.12;100400.03;5092873;28;20032;-77
2021/08/15 02:22:05;;;;;;;16.42;3.40;;;;;;;16.27;77.21;100389.81;5088827;28;20042;-77
2021/08/15 02:24:31;;;;;;;11.52;3.03;;;;;;;16.30;77.56;100434.00;5094557;28;20024;-77
2021/08/15 02:26:56;;;;;;;10.02;3.15;;;;;;;16.31;77.87;100394.34;5083943;28;20024;-77
2021/08/15 02:29:22;;;;;;;14.85;3.25;;;;;;;16.31;77.65;100386.09;5094974;28;20028;-77
2021/08/15 02:31:47;;;;;;;16.38;3.92;;;;;;;16.32;77.89;100384.97;5094650;28;20400;-76
2021/08/15 02:34:13;;;;;;;14.35;3.25;;;;;;;16.33;77.70;100383.03;5090700;28;20059;-76
2021/08/15 02:36:38;;;;;;;13.20;4.18;;;;;;;16.29;77.75;100391.13;5089293;28;20020;-77
2021/08/15 02:39:04;;;;;;;12.90;4.00;;;;;;;16.26;77.90;100394.53;5094476;28;20020;-76
2021/08/15 02:41:29;;;;;;;15.63;3.67;;;;;;;16.24;78.39;100391.28;5078669;28;20049;-76
2021/08/15 02:43:55;;;;;;;15.00;3.72;;;;;;;16.21;78.42;100383.69;5083471;28;20473;-76
2021/08/15 02:46:20;;;;;;;17.70;4.50;;;;;;;16.18;78.49;100387.06;5077533;28;20385;-76
2021/08/15 02:48:45;;;;;;;17.10;4.38;;;;;;;16.18;78.53;100381.56;5088820;28;20020;-76
2021/08/15 02:51:11;;;;;;;20.92;4.38;;;;;;;16.17;78.87;100374.44;5094524;28;20468;-77
2021/08/15 02:53:36;;;;;;;18.77;4.28;;;;;;;16.19;78.99;100391.44;5093926;28;20035;-77
2021/08/15 02:56:02;;;;;;;13.68;3.28;;;;;;;16.20;79.28;100373.78;5095213;28;20031;-77
2021/08/15 02:58:27;;;;;;;12.90;4.15;;;;;;;16.16;79.34;100372.81;5092592;28;20136;-77
2021/08/15 03:00:54;;;;;;;14.73;3.83;;;;;;;16.15;79.50;100373.94;5087426;28;20082;-75
2021/08/15 03:03:19;;;;;;;11.52;2.88;;;;;;;16.17;79.31;100401.94;5092396;28;20024;-75
2021/08/15 03:05:45;;;;;;;16.13;3.03;;;;;;;16.19;79.36;100380.44;5095029;28;20020;-76
2021/08/15 03:08:10;;;;;;;14.65;3.72;;;;;;;16.16;79.13;100373.63;5093859;28;20438;-75
2021/08/15 03:10:36;;;;;;;15.00;3.88;;;;;;;16.12;79.14;100375.41;5086784;28;20024;-76
2021/08/15 03:13:05;;;;;;;13.35;3.80;;;;;;;16.10;79.23;100363.13;5091425;28;20028;-75
2021/08/15 03:15:31;;;;;;;17.15;3.55;;;;;;;16.13;79.46;100382.53;5091561;28;20554;-76
2021/08/15 03:17:56;;;;;;;12.02;3.85;;;;;;;16.14;78.99;100377.81;5089884;28;20036;-76
2021/08/15 03:20:22;;;;;;;13.90;3.28;;;;;;;16.14;78.88;100395.13;5080365;28;20089;-76
2021/08/15 03:22:47;;;;;;;12.43;3.17;;;;;;;16.15;78.85;100388.53;5080969;28;20025;-75
2021/08/15 03:25:12;;;;;;;14.27;3.97;;;;;;;16.17;78.93;100379.94;5088222;28;20070;-75
2021/08/15 03:27:38;;;;;;;15.30;3.70;;;;;;;16.18;78.94;100376.88;5080941;28;20025;-75
2021/08/15 03:30:04;;;;;;;11.57;3.10;;;;;;;16.20;78.98;100385.63;5079269;28;20346;-75
2021/08/15 03:32:29;;;;;;;11.38;4.28;;;;;;;16.18;78.99;100387.06;5091727;28;20024;-76
2021/08/15 03:34:55;;;;;;;19.65;4.38;;;;;;;16.20;78.70;100379.28;5093825;28;20434;-76
2021/08/15 03:37:22;;;;;;;14.98;3.90;;;;;;;16.19;78.96;100372.97;5090061;28;20511;-76
2021/08/15 03:39:47;;;;;;;14.60;3.60;;;;;;;16.19;79.04;100372.19;5090732;28;20050;-76
2021/08/15 03:42:12;;;;;;;23.83;4.25;;;;;;;16.22;79.08;100377.03;5093606;28;20493;-76
2021/08/15 03:44:38;;;;;;;12.30;3.42;;;;;;;16.24;79.12;100390.47;5092716;28;20032;-77
2021/08/15 03:47:03;;;;;;;16.08;3.45;;;;;;;16.25;79.33;100376.38;5089177;28;20020;-76
2021/08/15 03:49:29;;;;;;;17.13;3.20;;;;;;;16.27;79.24;100390.63;5090214;28;20020;-76
2021/08/15 03:51:55;;;;;;;15.38;3.88;;;;;;;16.24;79.35;100391.28;5094409;28;20319;-76
2021/08/15 03:54:20;;;;;;;14.00;3.25;;;;;;;16.23;79.26;100377.84;5078717;28;20020;-76
2021/08/15 03:56:47;;;;;;;16.15;3.15;;;;;;;16.22;79.35;100403.72;5089509;28;20031;-77
2021/08/15 03:59:13;;;;;;;18.60;3.45;;;;;;;16.22;79.37;100370.72;5092854;28;20032;-77
2021/08/15 04:01:38;;;;;;;16.25;3.70;;;;;;;16.23;79.40;100380.59;5094258;28;20385;-77
2021/08/15 04:04:04;;;;;;;18.27;4.18;;;;;;;16.22;79.22;100412.78;5092591;28;20035;-77
2021/08/15 04:06:29;;;;;;;11.45;3.15;;;;;;;16.24;79.17;100396.78;5094609;28;20454;-77
2021/08/15 04:08:56;;;;;;;19.85;4.32;;;;;;;16.21;79.29;100367.16;5091845;28;20032;-77
2021/08/15 04:11:21;;;;;;;12.88;3.30;;;;;;;16.20;79.65;100369.13;5089935;28;20099;-77
2021/08/15 04:13:47;;;;;;;11.32;3.35;;;;;;;16.18;79.31;100371.38;5086458;28;20032;-77
2021/08/15 04:16:12;;;;;;;14.13;3.95;;;;;;;16.20;79.38;100357.28;5092962;28;20027;-77
2021/08/15 04:18:38;;;;;;;12.82;3.20;;;;;;;16.20;79.34;100352.63;5090798;28;20027;-77
2021/08/15 04:21:03;;;;;;;17.95;3.75;;;;;;;16.20;79.52;100351.78;5093360;28;20032;-77
2021/08/15 04:23:30;;;;;;;13.52;3.50;;;;;;;16.21;79.38;100361.66;5088300;28;20103;-77
2021/08/15 04:25:55;;;;;;;13.15;3.15;;;;;;;16.16;78.75;100353.56;5092641;28;20028;-77
2021/08/15 04:28:23;;;;;;;12.40;3.35;;;;;;;16.15;78.91;100355.53;5092299;28;20468;-77
2021/08/15 04:30:48;;;;;;;14.82;2.85;;;;;;;16.16;78.64;100357.13;5091218;28;20032;-77
2021/08/15 04:33:18;;;;;;;11.75;3.47;;;;;;;16.18;78.62;100356.81;5091751;28;20028;-77
2021/08/15 04:35:43;;;;;;;14.98;3.63;;;;;;;16.20;78.67;100349.03;5063130;28;20077;-77
2021/08/15 04:38:08;;;;;;;12.70;3.22;;;;;;;16.21;78.82;100358.91;5086752;28;20032;-77
2021/08/15 04:40:34;;;;;;;12.35;3.00;;;;;;;16.25;78.94;100354.38;5092582;28;20027;-77
2021/08/15 04:42:59;;;;;;;16.08;3.75;;;;;;;16.29;78.61;100366.38;5088716;28;20410;-77
2021/08/15 04:45:25;;;;;;;15.93;3.42;;;;;;;16.32;78.64;100349.22;5092003;28;20024;-77
2021/08/15 04:47:51;;;;;;;10.40;3.63;;;;;;;16.36;78.34;100377.69;5086235;28;20028;-77
2021/08/15 04:50:16;;;;;;;15.48;2.95;;;;;;;16.39;77.94;100359.72;5090514;28;20035;-77
2021/08/15 04:52:42;;;;;;;10.75;3.22;;;;;;;16.41;78.01;100352.75;5083246;28;20020;-78
2021/08/15 04:55:08;;;;;;;13.70;3.13;;;;;;;16.49;78.02;100347.59;5091676;28;20393;-77
2021/08/15 04:57:33;;;;;;;11.02;2.70;;;;;;;16.52;77.65;100385.47;5092287;28;20027;-77
2021/08/15 04:59:59;;;;;;;9.48;2.70;;;;;;;16.52;77.02;100347.75;5091015;28;20096;-77
2021/08/15 05:02:24;;;;;;;15.15;3.83;;;;;;;16.56;77.15;100375.41;5091742;28;20020;-77
2021/08/15 05:04:49;;;;;;;14.93;2.97;;;;;;;16.59;77.17;100361.03;5090615;28;20016;-77
2021/08/15 05:07:15;;;;;;;15.13;3.25;;;;;;;16.62;77.20;100379.66;5080971;28;20019;-77
2021/08/15 05:09:40;;;;;;;17.27;3.20;;;;;;;16.60;77.20;100371.69;5092042;28;20468;-77
2021/08/15 05:12:06;;;;;;;18.02;3.25;;;;;;;16.60;77.34;100355.19;5092342;28;20032;-77
2021/08/15 05:14:31;;;;;;;13.32;3.28;;;;;;;16.62;77.41;100357.63;5089149;28;20446;-77
2021/08/15 05:16:57;;;;;;;10.18;3.03;;;;;;;16.61;77.23;100358.75;5091714;28;20469;-77
2021/08/15 05:19:22;;;;;;;11.95;3.67;;;;;;;16.57;77.16;100360.53;5082467;28;20043;-78
2021/08/15 05:21:48;;;;;;;13.63;3.83;;;;;;;16.51;76.92;100351.66;5092093;28;20023;-77
2021/08/15 05:24:13;;;;;;;11.20;3.28;;;;;;;16.50;77.60;100365.72;5084833;28;20070;-77
2021/08/15 05:26:38;;;;;;;12.13;3.95;;;;;;;16.51;77.60;100361.84;5092185;28;20024;-77
2021/08/15 05:29:04;;;;;;;14.43;3.92;;;;;;;16.49;78.02;100358.59;5092060;28;20020;-77
2021/08/15 05:31:29;;;;;;;11.25;3.92;;;;;;;16.47;77.96;100358.09;5091252;28;20081;-77
2021/08/15 05:33:55;;;;;;;13.63;3.72;;;;;;;16.47;78.35;100361.66;5085246;28;20377;-77
2021/08/15 05:36:20;;;;;;;15.65;3.22;;;;;;;16.46;78.19;100370.25;5092764;28;20117;-77
2021/08/15 05:38:46;;;;;;;11.20;3.13;;;;;;;16.41;78.25;100380.28;5091293;28;20035;-77
2021/08/15 05:41:11;;;;;;;14.90;3.58;;;;;;;16.40;78.15;100362.16;5092666;28;20443;-77
2021/08/15 05:43:36;;;;;;;15.70;3.72;;;;;;;16.42;78.16;100365.41;5087437;28;20023;-77
2021/08/15 05:46:02;;;;;;;9.13;3.20;;;;;;;16.43;78.17;100367.00;5090984;28;20036;-77
2021/08/15 05:48:27;;;;;;;22.48;4.30;;;;;;;16.46;78.24;100381.25;5083383;28;20032;-77
2021/08/15 05:50:53;;;;;;;14.10;3.50;;;;;;;16.48;78.38;100359.72;5091047;28;20500;-77
2021/08/15 05:53:18;;;;;;;13.35;3.50;;;;;;;16.50;78.41;100372.03;5091218;28;20027;-77
2021/08/15 05:55:43;;;;;;;10.77;3.10;;;;;;;16.55;78.03;100363.59;5090925;28;20024;-78
2021/08/15 05:58:09;;;;;;;13.43;4.03;;;;;;;16.57;78.26;100360.53;5090590;28;20028;-77
2021/08/15 06:00:34;;;;;;;14.48;3.50;;;;;;;16.61;77.91;100367.00;5087353;28;20050;-77
2021/08/15 06:03:00;;;;;;;17.15;4.28;;;;;;;16.71;77.81;100374.13;5089525;28;20028;-77
2021/08/15 06:05:25;;;;;;;18.55;4.22;;;;;;;16.78;77.79;100367.03;5090124;28;20039;-76
2021/08/15 06:07:50;;;;;;;16.42;4.53;;;;;;;16.92;77.47;100371.56;5081723;28;20469;-76
2021/08/15 06:10:16;;;;;;;13.43;3.35;;;;;;;16.95;77.24;100381.91;5086608;28;20031;-76
2021/08/15 06:12:42;;;;;;;15.75;4.20;;;;;;;16.96;77.34;100389.03;5081538;28;20078;-76
2021/08/15 06:15:12;;;;;;;17.38;3.35;;;;;;;16.92;77.27;100383.38;5081003;28;20036;-76
2021/08/15 06:17:41;;;;;;;12.68;3.30;;;;;;;16.89;77.22;100381.28;5081902;28;20477;-77
2021/08/15 06:20:08;;;;;;;13.70;3.83;;;;;;;16.81;77.17;100374.63;5089381;28;20119;-76
2021/08/15 06:22:40;;;;;;;13.60;3.47;;;;;;;16.77;77.15;100365.41;5079448;28;20044;-76
2021/08/15 06:25:06;;;;;;;10.95;2.97;;;;;;;16.73;77.32;100378.19;5081275;28;20370;-77
2021/08/15 06:27:32;;;;;;;13.48;3.33;;;;;;;16.75;77.62;100383.34;5090618;28;20036;-76
2021/08/15 06:29:57;;;;;;;12.05;2.83;;;;;;;16.75;77.76;100377.84;5089885;28;20031;-76
2021/08/15 06:32:23;;;;;;;16.58;4.18;;;;;;;16.73;77.91;100380.13;5088267;28;20089;-77
2021/08/15 06:34:48;;;;;;;18.23;4.40;;;;;;;16.82;77.88;100383.69;5077001;28;20027;-77
2021/08/15 06:37:13;;;;;;;9.55;3.55;;;;;;;16.84;77.92;100387.75;5083057;28;20028;-76
2021/08/15 06:39:40;;;;;;;14.35;3.67;;;;;;;16.85;77.70;100388.56;5082086;28;20028;-77
2021/08/15 06:42:05;;;;;;;10.43;3.22;;;;;;;16.81;77.51;100385.66;5082283;28;20092;-77
2021/08/15 06:44:31;;;;;;;15.82;2.97;;;;;;;16.83;77.40;100383.38;5078501;28;20024;-75
2021/08/15 06:46:56;;;;;;;9.05;3.30;;;;;;;16.88;77.41;100389.84;5088104;28;20024;-77
2021/08/15 06:49:21;;;;;;;12.45;3.10;;;;;;;16.93;77.70;100393.25;5086085;28;20020;-77
2021/08/15 06:51:48;;;;;;;10.65;3.25;;;;;;;17.00;77.60;100392.75;5090250;28;20032;-77
2021/08/15 06:54:13;;;;;;;9.75;2.90;;;;;;;17.03;77.84;100395.66;5091083;28;20032;-77
2021/08/15 06:56:41;;;;;;;11.25;2.72;;;;;;;17.03;77.85;100400.38;5090089;28;20027;-77
2021/08/15 06:59:07;;;;;;;12.60;3.40;;;;;;;17.03;77.54;100400.38;5089046;28;20482;-77
2021/08/15 07:01:32;;;;;;;11.63;3.47;;;;;;;17.05;77.08;100420.09;5094872;28;20032;-76
2021/08/15 07:03:57;;;;;;;13.00;3.67;;;;;;;17.07;76.83;100401.31;5093218;28;20064;-76
2021/08/15 07:06:23;;;;;;;15.60;3.47;;;;;;;17.11;76.85;100391.28;5085115;28;20028;-76
2021/08/15 07:08:48;;;;;;;15.10;3.35;;;;;;;17.08;76.36;100409.25;5094281;28;20035;-76
2021/08/15 07:11:14;;;;;;;9.13;2.95;;;;;;;17.09;76.19;100399.06;5094056;28;20035;-76
2021/08/15 07:13:40;;;;;;;13.25;3.30;;;;;;;17.10;75.90;100406.16;5088457;28;20085;-76
2021/08/15 07:16:06;;;;;;;12.35;3.28;;;;;;;17.12;75.93;100386.56;5094329;28;20111;-76
2021/08/15 07:18:31;;;;;;;12.40;3.47;;;;;;;17.15;75.84;100396.94;5095556;28;20024;-76
2021/08/15 07:21:00;;;;;;;11.02;2.67;;;;;;;17.21;75.95;100396.41;5093862;28;20035;-76
2021/08/15 07:23:25;;;;;;;10.07;3.25;;;;;;;17.25;75.78;100402.91;5102998;28;20042;-76
2021/08/15 07:25:50;;;;;;;11.05;3.13;;;;;;;17.24;75.59;100412.31;5093045;28;20024;-77
2021/08/15 07:28:16;;;;;;;10.55;3.50;;;;;;;17.24;75.07;100406.81;5095088;28;20381;-76
2021/08/15 07:30:41;;;;;;;9.75;1.98;;;;;;;17.25;74.90;100402.09;5091479;28;20032;-76
2021/08/15 07:33:07;;;;;;;8.98;2.50;;;;;;;17.28;75.15;100407.75;5094895;28;20028;-76
2021/08/15 07:35:35;;;;;;;9.80;2.60;;;;;;;17.48;74.81;100399.91;5094158;28;20089;-76
2021/08/15 07:38:01;;;;;;;12.05;3.08;;;;;;;17.67;74.41;100408.59;5089399;28;20031;-76
2021/08/15 07:40:26;;;;;;;13.63;3.10;;;;;;;17.79;74.18;100409.84;5090045;28;20469;-76
2021/08/15 07:42:53;;;;;;;7.93;2.33;;;;;;;17.91;73.54;100401.69;5085245;28;20397;-77
2021/08/15 07:45:19;;;;;;;11.60;2.78;;;;;;;17.94;73.14;100401.84;5068454;28;20458;-78
2021/08/15 07:47:45;;;;;;;10.18;3.17;;;;;;;17.91;72.75;100416.28;5083146;28;20523;-77
2021/08/15 07:50:10;;;;;;;8.45;2.83;;;;;;;17.83;73.09;100416.34;5082973;28;20109;-77
2021/08/15 07:52:36;;;;;;;12.20;2.67;;;;;;;17.86;73.59;100410.97;5084667;28;20020;-77
2021/08/15 07:55:01;;;;;;;11.23;3.22;;;;;;;17.99;73.18;100409.13;5085623;28;20024;-77
2021/08/15 07:57:27;;;;;;;12.30;2.78;;;;;;;18.03;73.16;100421.09;5091839;28;20019;-77
2021/08/15 07:59:54;;;;;;;12.85;3.20;;;;;;;18.07;72.95;100416.53;5086660;28;20488;-76
2021/08/15 08:02:20;;;;;;;13.40;3.25;;;;;;;18.09;72.60;100397.72;5090284;28;20032;-76
2021/08/15 08:04:45;;;;;;;14.85;3.63;;;;;;;18.11;72.87;100411.94;5082637;28;20020;-76
2021/08/15 08:07:11;;;;;;;13.43;3.65;;;;;;;18.22;72.80;100406.84;5091852;28;20016;-77
2021/08/15 08:09:37;;;;;;;8.30;2.65;;;;;;;18.27;72.97;100419.66;5092396;28;20123;-77
2021/08/15 08:12:03;;;;;;;17.67;4.40;;;;;;;18.25;73.04;100406.22;5088081;28;20268;-77
2021/08/15 08:14:28;;;;;;;9.02;3.15;;;;;;;18.35;72.91;100408.56;5088291;28;20034;-77
2021/08/15 08:16:53;;;;;;;12.38;4.20;;;;;;;18.36;73.01;100418.47;5077884;28;20035;-76
2021/08/15 08:19:19;;;;;;;10.88;2.60;;;;;;;18.27;72.75;100425.19;5092005;28;20024;-76
2021/08/15 08:21:44;;;;;;;10.77;2.10;;;;;;;18.18;71.15;100428.00;5093296;28;20020;-76
2021/08/15 08:24:10;;;;;;;9.60;2.40;;;;;;;18.19;69.82;100426.84;5092466;28;20054;-77
2021/08/15 08:26:35;;;;;;;5.93;1.65;;;;;;;18.15;69.09;100418.44;5092058;28;20085;-76
2021/08/15 08:29:00;;;;;;;11.80;2.33;;;;;;;18.08;68.15;100428.38;5091285;28;20016;-76
2021/08/15 08:31:29;;;;;;;9.10;2.85;;;;;;;18.09;67.76;100430.81;5091805;28;20035;-77
2021/08/15 08:33:54;;;;;;;8.40;2.50;;;;;;;18.23;67.62;100421.50;5092404;28;20028;-77
2021/08/15 08:36:20;;;;;;;7.65;2.22;;;;;;;18.33;67.50;100427.44;5088067;28;20534;-77
2021/08/15 08:38:45;;;;;;;9.18;2.38;;;;;;;18.38;66.61;100429.16;5087227;28;20028;-76
2021/08/15 08:41:14;;;;;;;10.35;2.67;;;;;;;18.29;65.64;100440.25;5077366;28;20056;-76
2021/08/15 08:43:41;;;;;;;8.73;2.17;;;;;;;18.28;65.49;100432.31;5085808;28;20095;-78
2021/08/15 08:46:10;;;;;;;9.65;2.30;;;;;;;18.29;65.02;100434.75;5087982;28;20024;-79
2021/08/15 08:48:35;;;;;;;10.15;2.95;;;;;;;18.21;65.22;100454.91;5093899;28;20020;-79
2021/08/15 08:51:01;;;;;;;8.25;1.75;;;;;;;18.38;65.50;100432.72;5091842;28;20035;-79
2021/08/15 08:53:29;;;;;;;9.82;2.63;;;;;;;18.55;64.88;100447.53;5085553;28;20498;-79
2021/08/15 08:55:54;;;;;;;9.02;2.92;;;;;;;18.47;63.63;100443.72;5079985;28;20533;-78
2021/08/15 08:58:19;;;;;;;11.43;2.83;;;;;;;18.43;64.61;100456.56;5082954;28;20036;-79
2021/08/15 09:00:46;;;;;;;6.18;1.75;;;;;;;18.52;64.68;100464.78;5088269;28;20073;-78
2021/08/15 09:03:13;;;;;;;6.65;2.30;;;;;;;18.57;64.07;100457.13;5090998;28;20143;-79
2021/08/15 09:05:38;;;;;;;8.95;2.00;;;;;;;18.62;64.19;100454.16;5088231;28;20110;-77
2021/08/15 09:08:04;;;;;;;10.13;2.80;;;;;;;18.61;64.42;100462.78;5090911;28;20534;-79
2021/08/15 09:10:32;;;;;;;11.10;1.75;;;;;;;18.53;64.04;100458.94;5087074;28;20047;-78
2021/08/15 09:13:07;;;;;;;9.10;1.95;;;;;;;18.58;64.05;100469.78;5086561;28;20035;-77
2021/08/15 09:15:33;;;;;;;9.43;2.42;;;;;;;18.52;64.16;100454.53;5083684;28;20501;-78
2021/08/15 09:17:58;;;;;;;6.07;1.95;;;;;;;18.61;63.73;100462.78;5091441;28;20028;-77
2021/08/15 09:20:35;;;;;;;14.45;2.78;;;;;;;18.58;63.34;100458.75;5091549;28;20381;-78
2021/08/15 09:23:17;;;;;;;12.90;2.20;;;;;;;18.65;63.85;100452.69;5093084;28;20027;-79
2021/08/15 09:25:42;;;;;;;7.60;1.95;;;;;;;18.94;63.84;100473.13;5060914;28;20067;-79
2021/08/15 09:28:08;;;;;;;7.63;2.28;;;;;;;18.96;63.41;100474.41;5091974;28;20048;-78
2021/08/15 09:30:33;;;;;;;8.73;1.80;;;;;;;19.06;63.02;100473.16;5089103;28;20016;-78
2021/08/15 09:33:04;;;;;;;6.80;1.98;;;;;;;19.09;62.42;100461.44;5073256;28;20472;-78
2021/08/15 09:35:35;;;;;;;5.55;1.70;;;;;;;19.18;62.55;100475.16;5086346;28;20055;-80
2021/08/15 09:38:06;;;;;;;7.20;2.30;;;;;;;19.10;62.67;100485.19;5085439;28;20031;-80
2021/08/15 09:40:34;;;;;;;9.32;2.15;;;;;;;19.09;62.98;100472.50;5092303;28;20107;-79
2021/08/15 09:43:00;;;;;;;7.13;1.55;;;;;;;19.16;62.22;100491.31;5069729;28;20048;-80
2021/08/15 09:45:42;;;;;;;6.40;1.90;;;;;;;19.08;62.67;100485.50;5086590;28;20150;-80
2021/08/15 09:48:24;;;;;;;7.93;1.97;;;;;;;19.13;63.38;100475.41;5092906;28;20046;-79
2021/08/15 09:51:09;;;;;;;9.95;2.72;;;;;;;19.11;63.58;100484.00;5092566;28;20349;-80
2021/08/15 09:53:38;;;;;;;6.20;2.20;;;;;;;19.13;63.37;100506.59;5088573;28;20107;-80
2021/08/15 09:56:03;;;;;;;8.55;2.40;;;;;;;19.12;63.22;100504.16;5074022;28;20107;-80
2021/08/15 09:58:29;;;;;;;9.13;1.98;;;;;;;19.09;63.29;100511.16;5082820;28;20112;-80
2021/08/15 10:00:59;;;;;;;7.82;1.77;;;;;;;19.15;63.37;100484.97;5089872;28;20032;-80
2021/08/15 10:03:25;;;;;;;7.00;2.30;;;;;;;19.27;63.27;100503.56;5088177;28;20028;-80
2021/08/15 10:05:51;;;;;;;8.80;2.85;;;;;;;19.32;63.63;100508.88;5086996;28;20069;-79
2021/08/15 10:08:17;;;;;;;10.55;2.75;;;;;;;19.29;62.45;100492.97;5091311;28;20020;-80
2021/08/15 10:10:44;;;;;;;7.38;1.83;;;;;;;19.23;62.46;100505.34;5083396;28;20489;-79
2021/08/15 10:13:10;;;;;;;8.27;2.28;;;;;;;19.21;62.51;100514.00;5063567;28;20039;-79
2021/08/15 10:15:36;;;;;;;8.77;2.22;;;;;;;19.18;63.22;100508.31;5088572;28;20103;-79
2021/08/15 10:18:03;;;;;;;11.60;2.05;;;;;;;19.22;63.26;100503.75;5088311;28;20075;-75
2021/08/15 10:20:29;;;;;;;9.25;2.30;;;;;;;19.21;62.80;100518.72;5082703;28;20067;-76
2021/08/15 10:23:13;;;;;;;7.85;2.65;;;;;;;19.19;62.71;100504.44;5066450;28;20107;-76
2021/08/15 10:25:43;;;;;;;7.88;2.22;;;;;;;19.13;61.76;100511.31;5089682;28;20019;-76
2021/08/15 10:28:28;;;;;;;6.88;2.45;;;;;;;19.18;62.03;100509.16;5090561;28;20496;-75
2021/08/15 10:30:54;;;;;;;7.57;2.35;;;;;;;19.21;62.01;100514.00;5076758;28;20127;-76
2021/08/15 10:33:20;;;;;;;8.05;2.53;;;;;;;19.21;62.37;100504.91;5092732;28;20027;-76
2021/08/15 10:36:14;;;;;;;5.90;1.40;;;;;;;19.30;62.44;100511.16;5071574;28;20683;-76
2021/08/15 10:38:41;;;;;;;8.38;2.00;;;;;;;19.38;61.88;100485.38;5083684;28;20024;-76
2021/08/15 10:41:06;;;;;;;11.27;2.75;;;;;;;19.42;62.28;100513.94;5091473;28;20702;-76
2021/08/15 10:43:31;;;;;;;14.43;2.58;;;;;;;19.60;62.39;100497.19;5092103;28;20037;-76
2021/08/15 10:46:09;;;;;;;7.32;2.33;;;;;;;19.85;62.24;100504.41;5094461;28;20082;-76
2021/08/15 10:49:00;;;;;;;6.18;2.15;;;;;;;19.86;61.14;100506.06;5093678;28;20030;-76
2021/08/15 10:51:42;;;;;;;9.83;2.37;;;;;;;19.90;61.06;100511.69;5092903;28;20032;-76
2021/08/15 10:54:08;;;;;;;7.97;1.75;;;;;;;19.93;60.59;100506.28;5091300;28;20253;-76
2021/08/15 10:57:04;;;;;;;8.55;2.25;;;;;;;20.00;60.84;100502.13;5085022;28;20028;-76
2021/08/15 10:59:37;;;;;;;7.55;2.38;;;;;;;20.03;60.82;100498.69;5082898;28;20675;-76
2021/08/15 11:02:19;;;;;;;5.78;1.70;;;;;;;20.13;60.27;100514.81;5092190;28;20487;-76
2021/08/15 11:04:57;;;;;;;6.82;2.05;;;;;;;20.03;60.38;100512.53;5085736;28;20036;-76
2021/08/15 11:07:36;;;;;;;10.48;1.98;;;;;;;20.12;60.00;100508.47;5093150;28;20028;-76
2021/08/15 11:10:01;;;;;;;8.55;2.17;;;;;;;20.17;59.98;100521.31;5090025;28;20174;-76
2021/08/15 11:12:27;;;;;;;5.90;1.52;;;;;;;20.13;59.79;100521.19;5090631;28;20026;-76
2021/08/15 11:14:57;;;;;;;8.35;2.15;;;;;;;20.27;59.39;100509.78;5093572;28;20023;-76
2021/08/15 11:17:24;;;;;;;7.15;2.03;;;;;;;20.33;59.17;100502.84;5085558;28;20036;-76